Time;durP1;ratioP1;P1;durP2;ratioP2;P2;SDS_P1;SDS_P2;PMS_P1;PMS_P2;Temp;Humidity;BMP_temperature;BMP_pressure;BME280_temperature;BME280_humidity;BME280_pressure;Samples;Min_cycle;Max_cycle;Signal;HPM_P1;HPM_P2
2023/03/07 00:00:40;;;;;;;16.38;7.68;;;4.00;99.90;;;;;;4968043;28;20078;-83
2023/03/07 00:03:07;;;;;;;13.65;7.15;;;3.90;99.90;;;;;;4965976;28;20562;-82
2023/03/07 00:05:32;;;;;;;14.25;7.43;;;3.90;99.90;;;;;;4965019;28;20045;-83
2023/03/07 00:07:58;;;;;;;17.27;7.35;;;3.90;99.90;;;;;;4963372;28;20031;-82
2023/03/07 00:10:24;;;;;;;14.82;7.25;;;3.90;99.90;;;;;;4963416;28;20512;-82
2023/03/07 00:12:50;;;;;;;12.20;7.00;;;3.90;99.90;;;;;;4964660;28;20105;-83
2023/03/07 00:15:17;;;;;;;13.35;7.10;;;3.80;99.90;;;;;;4965208;28;20162;-81
2023/03/07 00:17:43;;;;;;;13.60;6.72;;;3.80;99.90;;;;;;4965508;28;20027;-82
2023/03/07 00:20:15;;;;;;;15.20;7.60;;;3.80;99.90;;;;;;4965935;28;20057;-82
2023/03/07 00:22:42;;;;;;;12.38;6.45;;;3.80;99.90;;;;;;4964168;28;20087;-82
2023/03/07 00:25:09;;;;;;;14.68;8.07;;;3.80;99.90;;;;;;4963058;28;20097;-81
2023/03/07 00:27:35;;;;;;;12.57;6.82;;;3.80;99.90;;;;;;4962566;28;20041;-82
2023/03/07 00:30:03;;;;;;;12.63;7.32;;;3.90;99.90;;;;;;4959998;28;20042;-82
2023/03/07 00:32:29;;;;;;;15.90;7.72;;;3.90;99.90;;;;;;4966680;28;20031;-82
2023/03/07 00:34:56;;;;;;;17.88;7.78;;;3.90;99.90;;;;;;4962867;28;20027;-82
2023/03/07 00:37:22;;;;;;;14.30;7.40;;;3.90;99.90;;;;;;4964219;28;20034;-82
2023/03/07 00:39:48;;;;;;;12.52;6.65;;;3.80;99.90;;;;;;4963402;28;20031;-82
2023/03/07 00:42:14;;;;;;;14.27;7.95;;;3.90;99.90;;;;;;4963910;28;20506;-83
2023/03/07 00:44:39;;;;;;;13.15;7.03;;;3.90;99.90;;;;;;4960246;28;20029;-81
2023/03/07 00:47:05;;;;;;;12.52;7.00;;;3.90;99.90;;;;;;4959551;28;20026;-82
2023/03/07 00:49:31;;;;;;;17.02;8.55;;;3.90;99.90;;;;;;4962338;28;20098;-83
2023/03/07 00:51:56;;;;;;;15.30;8.00;;;3.80;99.90;;;;;;4970002;28;20073;-82
2023/03/07 00:54:22;;;;;;;13.63;7.32;;;3.80;99.90;;;;;;4967030;28;20435;-82
2023/03/07 00:56:48;;;;;;;15.32;7.93;;;3.80;99.90;;;;;;4967785;28;20034;-81
2023/03/07 00:59:14;;;;;;;15.50;7.97;;;3.80;99.90;;;;;;4968378;28;20517;-81
2023/03/07 01:01:40;;;;;;;15.82;8.20;;;3.80;99.90;;;;;;4963501;28;20033;-81
2023/03/07 01:04:06;;;;;;;14.25;7.55;;;3.80;99.90;;;;;;4965022;28;20019;-82
2023/03/07 01:06:32;;;;;;;13.15;7.15;;;3.80;99.90;;;;;;4965795;28;20089;-82
2023/03/07 01:09:01;;;;;;;13.30;7.00;;;3.80;99.90;;;;;;4965813;28;20027;-82
2023/03/07 01:11:28;;;;;;;14.90;8.20;;;3.80;99.90;;;;;;4964835;28;20050;-82
2023/03/07 01:13:58;;;;;;;13.98;7.53;;;3.80;99.90;;;;;;4967867;28;20410;-82
2023/03/07 01:16:30;;;;;;;14.90;7.68;;;3.80;99.90;;;;;;4965877;28;21924;-82
2023/03/07 01:19:02;;;;;;;18.05;7.80;;;3.90;99.90;;;;;;4982487;28;20398;-83
2023/03/07 01:21:31;;;;;;;14.32;7.70;;;3.90;99.90;;;;;;4966711;28;20445;-83
2023/03/07 01:23:57;;;;;;;14.73;7.85;;;3.90;99.90;;;;;;4965544;28;20130;-83
2023/03/07 01:26:25;;;;;;;13.35;7.00;;;3.90;99.90;;;;;;4967128;28;20046;-83
2023/03/07 01:28:52;;;;;;;15.98;7.60;;;3.90;99.90;;;;;;4966478;28;20062;-83
2023/03/07 01:31:18;;;;;;;13.95;7.30;;;3.90;99.90;;;;;;4967257;28;20027;-83
2023/03/07 01:33:49;;;;;;;17.40;7.97;;;3.90;99.90;;;;;;4967500;28;20089;-83
2023/03/07 01:36:15;;;;;;;16.27;8.65;;;3.90;99.90;;;;;;4982221;28;20039;-82
2023/03/07 01:38:41;;;;;;;18.38;8.82;;;3.80;99.90;;;;;;4963733;28;20086;-82
2023/03/07 01:41:06;;;;;;;14.40;7.50;;;3.80;99.90;;;;;;4982154;28;20030;-81
2023/03/07 01:43:33;;;;;;;16.17;7.90;;;3.80;99.90;;;;;;4965745;28;20049;-82
2023/03/07 01:46:17;;;;;;;13.73;7.15;;;3.80;99.90;;;;;;4965476;28;20503;-82
2023/03/07 01:49:16;;;;;;;15.45;7.97;;;3.80;99.90;;;;;;4965007;28;20081;-82
2023/03/07 01:51:46;;;;;;;13.77;7.53;;;3.80;99.90;;;;;;4957083;28;20035;-82
2023/03/07 01:54:16;;;;;;;14.45;7.82;;;3.80;99.90;;;;;;4961255;28;20038;-81
2023/03/07 01:56:43;;;;;;;12.63;7.25;;;3.80;99.90;;;;;;4979866;28;20030;-82
2023/03/07 01:59:09;;;;;;;15.55;7.97;;;3.80;99.90;;;;;;4964259;28;20027;-82
2023/03/07 02:01:36;;;;;;;15.35;7.72;;;3.80;99.90;;;;;;4961025;28;20100;-81
2023/03/07 02:04:16;;;;;;;17.38;8.27;;;3.70;99.90;;;;;;4965537;28;20035;-82
2023/03/07 02:06:41;;;;;;;12.05;6.82;;;3.70;99.90;;;;;;4965107;28;20027;-81
2023/03/07 02:09:14;;;;;;;14.88;7.80;;;3.70;99.90;;;;;;4965757;28;20022;-82
2023/03/07 02:11:42;;;;;;;14.15;7.22;;;3.70;99.90;;;;;;4979460;28;20030;-82
2023/03/07 02:14:07;;;;;;;13.82;7.38;;;3.70;99.90;;;;;;4965039;28;20492;-81
2023/03/07 02:16:35;;;;;;;12.52;6.72;;;3.70;99.90;;;;;;4967021;28;20035;-81
2023/03/07 02:19:01;;;;;;;12.60;6.97;;;3.70;99.90;;;;;;4957992;28;20388;-82
2023/03/07 02:21:42;;;;;;;12.60;7.15;;;3.70;99.90;;;;;;4964894;28;20038;-82
2023/03/07 02:24:21;;;;;;;13.52;7.15;;;3.70;99.90;;;;;;4963682;28;20039;-82
2023/03/07 02:26:49;;;;;;;13.68;7.07;;;3.70;99.90;;;;;;4966559;28;20387;-83
2023/03/07 02:29:15;;;;;;;11.95;6.28;;;3.70;99.90;;;;;;4964856;28;20427;-82
2023/03/07 02:31:41;;;;;;;12.63;7.43;;;3.70;99.90;;;;;;4964139;28;20482;-81
2023/03/07 02:34:24;;;;;;;13.93;6.75;;;3.70;99.90;;;;;;4963451;28;20035;-82
2023/03/07 02:36:57;;;;;;;12.45;6.47;;;3.70;99.90;;;;;;4966509;28;20047;-83
2023/03/07 02:39:24;;;;;;;14.10;6.50;;;3.70;99.90;;;;;;4961643;28;20077;-83
2023/03/07 02:41:53;;;;;;;16.35;7.40;;;3.70;99.90;;;;;;4979176;28;20057;-83
2023/03/07 02:44:20;;;;;;;15.00;6.97;;;3.70;99.90;;;;;;4963873;28;20037;-82
2023/03/07 02:46:45;;;;;;;14.23;7.32;;;3.70;99.90;;;;;;4965581;28;20031;-82
2023/03/07 02:49:11;;;;;;;15.70;6.72;;;3.70;99.90;;;;;;4963972;28;20567;-82
2023/03/07 02:51:37;;;;;;;13.25;7.25;;;3.70;99.90;;;;;;4967283;28;20023;-82
2023/03/07 02:54:02;;;;;;;16.88;7.40;;;3.70;99.90;;;;;;4965996;28;20097;-82
2023/03/07 02:56:28;;;;;;;13.23;7.05;;;3.70;99.90;;;;;;4964708;28;20062;-82
2023/03/07 02:58:54;;;;;;;15.25;7.68;;;3.70;99.90;;;;;;4965026;28;20082;-82
2023/03/07 03:01:19;;;;;;;15.88;7.13;;;3.70;99.90;;;;;;4964833;28;20450;-82
2023/03/07 03:03:45;;;;;;;13.32;7.25;;;3.70;99.90;;;;;;4964476;28;20027;-82
2023/03/07 03:06:11;;;;;;;13.18;6.93;;;3.70;99.90;;;;;;4963557;28;20096;-83
2023/03/07 03:08:36;;;;;;;11.70;6.43;;;3.60;99.90;;;;;;4966247;28;20543;-83
2023/03/07 03:11:02;;;;;;;13.70;7.00;;;3.50;99.90;;;;;;4962422;28;20027;-83
2023/03/07 03:13:27;;;;;;;14.90;7.03;;;3.50;99.90;;;;;;4967125;28;20472;-82
2023/03/07 03:15:56;;;;;;;12.52;6.30;;;3.50;99.90;;;;;;4979504;28;20030;-81
2023/03/07 03:18:32;;;;;;;13.80;7.00;;;3.50;99.90;;;;;;4977812;28;20077;-82
2023/03/07 03:20:57;;;;;;;13.27;7.00;;;3.50;99.90;;;;;;4975588;28;20047;-82
2023/03/07 03:23:27;;;;;;;13.95;6.65;;;3.40;99.90;;;;;;4975179;28;20039;-82
2023/03/07 03:26:01;;;;;;;13.70;7.25;;;3.40;99.90;;;;;;4967959;28;20023;-83
2023/03/07 03:28:27;;;;;;;17.67;9.13;;;3.50;99.90;;;;;;4958866;28;20177;-83
2023/03/07 03:30:58;;;;;;;14.52;7.28;;;3.50;99.90;;;;;;4964761;28;20063;-82
2023/03/07 03:33:25;;;;;;;16.23;7.93;;;3.40;99.90;;;;;;4963587;28;20133;-83
2023/03/07 03:35:50;;;;;;;12.45;6.53;;;3.40;99.90;;;;;;4963991;28;20519;-82
2023/03/07 03:38:16;;;;;;;13.07;6.93;;;3.40;99.90;;;;;;4962990;28;20059;-83
2023/03/07 03:40:41;;;;;;;11.93;6.40;;;3.40;99.90;;;;;;4961008;28;20027;-83
2023/03/07 03:43:07;;;;;;;14.50;7.20;;;3.40;99.90;;;;;;4964356;28;20026;-83
2023/03/07 03:45:33;;;;;;;15.52;7.40;;;3.40;99.90;;;;;;4964430;28;20043;-82
2023/03/07 03:47:58;;;;;;;15.75;7.65;;;3.40;99.90;;;;;;4966647;28;20097;-83
2023/03/07 03:50:24;;;;;;;13.77;6.93;;;3.40;99.90;;;;;;4962601;28;20078;-82
2023/03/07 03:52:49;;;;;;;15.80;7.63;;;3.40;99.90;;;;;;4965433;28;20031;-83
2023/03/07 03:55:15;;;;;;;13.25;6.60;;;3.40;99.90;;;;;;4963227;28;20031;-82
2023/03/07 03:57:41;;;;;;;13.82;6.20;;;3.40;99.90;;;;;;4967171;28;20035;-82
2023/03/07 04:00:13;;;;;;;11.38;6.15;;;3.40;99.90;;;;;;4963506;28;20387;-82
2023/03/07 04:02:39;;;;;;;12.63;6.63;;;3.40;99.90;;;;;;4964836;28;20034;-82
2023/03/07 04:05:05;;;;;;;13.38;7.35;;;3.40;99.90;;;;;;4963296;28;20041;-83
2023/03/07 04:07:31;;;;;;;12.93;6.72;;;3.50;99.90;;;;;;4964070;28;20059;-83
2023/03/07 04:09:57;;;;;;;12.93;6.65;;;3.50;99.90;;;;;;4963996;28;20094;-83
2023/03/07 04:12:22;;;;;;;12.73;6.35;;;3.50;99.90;;;;;;4965171;28;20026;-83
2023/03/07 04:14:48;;;;;;;12.73;5.95;;;3.50;99.90;;;;;;4964045;28;20031;-83
2023/03/07 04:17:14;;;;;;;12.25;6.40;;;3.50;99.90;;;;;;4965659;28;20106;-83
2023/03/07 04:19:39;;;;;;;16.98;6.60;;;3.50;99.90;;;;;;4963323;28;20037;-83
2023/03/07 04:22:05;;;;;;;13.90;6.63;;;3.50;99.90;;;;;;4966457;28;20027;-83
2023/03/07 04:24:31;;;;;;;11.52;6.07;;;3.60;99.90;;;;;;4964952;28;20027;-83
2023/03/07 04:26:56;;;;;;;11.88;6.07;;;3.50;99.90;;;;;;4965379;28;20034;-83
2023/03/07 04:29:22;;;;;;;13.73;7.18;;;3.50;99.90;;;;;;4968574;28;20039;-83
2023/03/07 04:31:48;;;;;;;15.77;6.72;;;3.50;99.90;;;;;;4969909;28;20086;-82
2023/03/07 04:34:13;;;;;;;11.07;6.47;;;3.50;99.90;;;;;;4968116;28;20554;-83
2023/03/07 04:36:39;;;;;;;11.75;5.80;;;3.50;99.90;;;;;;4966215;28;20054;-83
2023/03/07 04:39:05;;;;;;;12.32;7.07;;;3.50;99.90;;;;;;4967893;28;20132;-83
2023/03/07 04:41:31;;;;;;;10.50;5.93;;;3.60;99.90;;;;;;4969312;28;20037;-83
2023/03/07 04:43:56;;;;;;;17.35;7.28;;;3.50;99.90;;;;;;4969716;28;20589;-83
2023/03/07 04:46:22;;;;;;;11.43;5.82;;;3.60;99.90;;;;;;4967552;28;20039;-83
2023/03/07 04:48:48;;;;;;;14.82;6.45;;;3.50;99.90;;;;;;4969868;28;20022;-83
2023/03/07 04:51:14;;;;;;;14.63;7.18;;;3.50;99.90;;;;;;4966304;28;20030;-83
2023/03/07 04:53:39;;;;;;;12.65;6.90;;;3.60;99.90;;;;;;4969724;28;20054;-83
2023/03/07 04:56:07;;;;;;;14.07;6.57;;;3.60;99.90;;;;;;4967578;28;20034;-83
2023/03/07 04:58:34;;;;;;;14.75;6.78;;;3.60;99.90;;;;;;4964118;28;20471;-83
2023/03/07 05:01:01;;;;;;;14.00;6.88;;;3.60;99.90;;;;;;4965885;28;20034;-83
2023/03/07 05:03:27;;;;;;;10.90;5.85;;;3.60;99.90;;;;;;4965701;28;20027;-83
2023/03/07 05:05:52;;;;;;;16.02;6.85;;;3.60;99.90;;;;;;4970134;28;20041;-83
2023/03/07 05:08:19;;;;;;;13.85;6.88;;;3.60;99.90;;;;;;4972327;28;20476;-83
2023/03/07 05:10:45;;;;;;;13.73;6.90;;;3.60;99.90;;;;;;4967045;28;20054;-83
2023/03/07 05:13:11;;;;;;;13.60;6.75;;;3.60;99.90;;;;;;4969180;28;20062;-82
2023/03/07 05:15:36;;;;;;;15.80;7.07;;;3.60;99.90;;;;;;4966863;28;20062;-83
2023/03/07 05:18:02;;;;;;;15.18;6.95;;;3.60;99.90;;;;;;4964021;28;20038;-82
2023/03/07 05:20:32;;;;;;;13.68;7.47;;;3.60;99.90;;;;;;4967832;28;20450;-82
2023/03/07 05:22:58;;;;;;;19.77;7.95;;;3.60;99.90;;;;;;4965735;28;20035;-82
2023/03/07 05:25:23;;;;;;;19.80;7.43;;;3.60;99.90;;;;;;4966540;28;20031;-83
2023/03/07 05:27:49;;;;;;;16.30;6.63;;;3.70;99.90;;;;;;4967166;28;20090;-83
2023/03/07 05:30:15;;;;;;;16.33;7.32;;;3.60;99.90;;;;;;4981284;28;20026;-83
2023/03/07 05:32:41;;;;;;;20.05;8.23;;;3.70;99.90;;;;;;4967297;28;20041;-83
2023/03/07 05:35:09;;;;;;;19.20;8.38;;;3.70;99.90;;;;;;4963957;28;20042;-82
2023/03/07 05:37:35;;;;;;;18.58;8.15;;;3.70;99.90;;;;;;4980655;28;20572;-83
2023/03/07 05:40:04;;;;;;;13.65;7.15;;;3.70;99.90;;;;;;4968896;28;20093;-83
2023/03/07 05:42:29;;;;;;;13.80;6.78;;;3.70;99.90;;;;;;4964672;28;20042;-83
2023/03/07 05:44:55;;;;;;;15.05;7.10;;;3.70;99.90;;;;;;4962581;28;20038;-83
2023/03/07 05:47:21;;;;;;;13.43;6.28;;;3.70;99.90;;;;;;4962769;28;20039;-83
2023/03/07 05:49:46;;;;;;;12.02;5.78;;;3.70;99.90;;;;;;4969372;28;20476;-83
2023/03/07 05:52:12;;;;;;;12.30;6.57;;;3.70;99.90;;;;;;4966859;28;20106;-83
2023/03/07 05:54:37;;;;;;;12.15;6.57;;;3.70;99.90;;;;;;4967069;28;20031;-83
2023/03/07 05:57:03;;;;;;;14.40;6.50;;;3.70;99.90;;;;;;4965550;28;20031;-83
2023/03/07 05:59:29;;;;;;;10.98;6.18;;;3.70;99.90;;;;;;4964780;28;20451;-83
2023/03/07 06:01:54;;;;;;;12.70;5.90;;;3.70;99.90;;;;;;4965333;28;20476;-83
2023/03/07 06:04:20;;;;;;;10.93;5.95;;;3.70;99.90;;;;;;4966762;28;20038;-83
2023/03/07 06:06:45;;;;;;;11.60;5.80;;;3.80;99.90;;;;;;4969069;28;20121;-83
2023/03/07 06:09:11;;;;;;;14.55;5.82;;;3.80;99.90;;;;;;4966351;28;20431;-83
2023/03/07 06:11:37;;;;;;;12.32;6.30;;;3.80;99.90;;;;;;4967660;28;20383;-82
2023/03/07 06:14:03;;;;;;;10.70;5.53;;;3.80;99.90;;;;;;4967964;28;20045;-83
2023/03/07 06:16:29;;;;;;;10.57;6.10;;;3.80;99.90;;;;;;4963539;28;20035;-83
2023/03/07 06:18:54;;;;;;;10.68;6.18;;;3.80;99.90;;;;;;4965840;28;20034;-83
2023/03/07 06:21:20;;;;;;;11.77;6.22;;;3.80;99.90;;;;;;4962819;28;20047;-83
2023/03/07 06:23:45;;;;;;;13.13;6.00;;;3.80;99.90;;;;;;4966898;28;20106;-83
2023/03/07 06:26:11;;;;;;;13.07;5.85;;;3.70;99.90;;;;;;4961811;28;20062;-84
2023/03/07 06:28:40;;;;;;;12.52;6.28;;;3.80;99.90;;;;;;4967963;28;20053;-83
2023/03/07 06:31:11;;;;;;;11.25;5.88;;;3.80;99.90;;;;;;4968779;28;20027;-83
2023/03/07 06:33:37;;;;;;;11.10;6.00;;;3.80;99.90;;;;;;4968563;28;20034;-82
2023/03/07 06:36:07;;;;;;;12.48;6.45;;;3.80;99.90;;;;;;4969937;28;20026;-83
2023/03/07 06:38:33;;;;;;;14.50;6.63;;;3.90;99.90;;;;;;4969618;28;20039;-82
2023/03/07 06:40:59;;;;;;;12.88;6.00;;;3.80;99.90;;;;;;4965207;28;20022;-81
2023/03/07 06:43:24;;;;;;;10.35;5.95;;;3.90;99.90;;;;;;4965065;28;20396;-82
2023/03/07 06:45:50;;;;;;;10.75;5.78;;;3.90;99.90;;;;;;4966030;28;20101;-83
2023/03/07 06:48:17;;;;;;;12.60;6.38;;;3.90;99.90;;;;;;4963639;28;20033;-83
2023/03/07 06:50:44;;;;;;;11.30;5.95;;;3.90;99.90;;;;;;4967755;28;20030;-83
2023/03/07 06:53:09;;;;;;;12.52;5.90;;;4.00;99.90;;;;;;4964670;28;20109;-83
2023/03/07 06:55:35;;;;;;;11.57;5.68;;;4.00;99.90;;;;;;4965075;28;20492;-82
2023/03/07 06:58:01;;;;;;;15.15;6.43;;;4.00;99.90;;;;;;4962895;28;20031;-83
2023/03/07 07:00:27;;;;;;;14.68;6.53;;;4.00;99.90;;;;;;4965501;28;20117;-83
2023/03/07 07:02:52;;;;;;;13.73;6.40;;;4.00;99.90;;;;;;4965744;28;20047;-82
2023/03/07 07:05:18;;;;;;;10.52;6.15;;;4.00;99.90;;;;;;4966340;28;20034;-82
2023/03/07 07:07:44;;;;;;;11.40;5.72;;;4.10;99.90;;;;;;4965395;28;20162;-82
2023/03/07 07:10:10;;;;;;;10.63;5.35;;;4.10;99.90;;;;;;4966620;28;20027;-83
2023/03/07 07:12:35;;;;;;;13.50;6.90;;;4.10;99.90;;;;;;4966725;28;20515;-83
2023/03/07 07:15:04;;;;;;;11.30;6.03;;;4.20;99.90;;;;;;4968001;28;20090;-84
2023/03/07 07:17:30;;;;;;;10.98;6.43;;;4.20;99.90;;;;;;4971663;28;20031;-83
2023/03/07 07:19:56;;;;;;;11.25;6.13;;;4.20;99.90;;;;;;4966860;28;20031;-83
2023/03/07 07:22:22;;;;;;;11.68;5.93;;;4.20;99.90;;;;;;4985378;28;20035;-83
2023/03/07 07:24:48;;;;;;;12.05;5.95;;;4.20;99.80;;;;;;4967683;28;20034;-84
2023/03/07 07:27:14;;;;;;;12.90;5.70;;;4.30;99.90;;;;;;4965419;28;20109;-83
2023/03/07 07:29:39;;;;;;;11.90;6.05;;;4.30;99.70;;;;;;4965836;28;20030;-79
2023/03/07 07:32:06;;;;;;;12.40;6.13;;;4.30;99.60;;;;;;4967872;28;20023;-79
2023/03/07 07:34:32;;;;;;;13.55;7.18;;;4.30;99.80;;;;;;4965111;28;20102;-80
2023/03/07 07:36:58;;;;;;;13.00;6.25;;;4.40;99.50;;;;;;4971319;28;20023;-79
2023/03/07 07:39:23;;;;;;;13.52;6.30;;;4.40;99.40;;;;;;4964707;28;20122;-80
2023/03/07 07:41:49;;;;;;;8.88;5.40;;;4.50;99.20;;;;;;4966568;28;20460;-80
2023/03/07 07:44:15;;;;;;;10.90;6.13;;;4.40;98.90;;;;;;4974591;28;20046;-80
2023/03/07 07:46:40;;;;;;;10.85;6.10;;;4.50;99.20;;;;;;4968047;28;20104;-80
2023/03/07 07:49:07;;;;;;;10.98;6.25;;;4.60;99.20;;;;;;4962824;28;20034;-78
2023/03/07 07:51:32;;;;;;;9.85;5.97;;;4.60;99.00;;;;;;4967951;28;20085;-80
2023/03/07 07:53:59;;;;;;;12.52;6.03;;;4.60;99.00;;;;;;4966583;28;20425;-78
2023/03/07 07:56:24;;;;;;;12.98;6.18;;;4.80;99.00;;;;;;4966381;28;20025;-79
2023/03/07 07:58:50;;;;;;;11.23;5.38;;;4.90;99.00;;;;;;4970410;28;20028;-78
2023/03/07 08:01:19;;;;;;;10.23;5.50;;;5.00;98.70;;;;;;4963168;28;20098;-78
2023/03/07 08:03:45;;;;;;;10.40;5.25;;;5.00;98.30;;;;;;4963647;28;20046;-78
2023/03/07 08:06:11;;;;;;;16.05;6.38;;;5.10;98.40;;;;;;4965949;28;20029;-78
2023/03/07 08:08:37;;;;;;;10.98;5.50;;;5.20;98.30;;;;;;4978299;28;20387;-79
2023/03/07 08:11:03;;;;;;;12.25;5.85;;;5.30;98.10;;;;;;4981024;28;20475;-79
2023/03/07 08:13:29;;;;;;;11.40;5.68;;;5.40;98.00;;;;;;4972511;28;20653;-79
2023/03/07 08:15:54;;;;;;;13.57;6.65;;;5.50;97.80;;;;;;4971159;28;20027;-79
2023/03/07 08:18:20;;;;;;;10.07;5.72;;;5.60;97.50;;;;;;4967102;28;20100;-79
2023/03/07 08:20:46;;;;;;;9.63;5.72;;;5.60;97.50;;;;;;4968648;28;20035;-78
2023/03/07 08:23:12;;;;;;;11.93;6.05;;;5.70;97.10;;;;;;4970832;28;20035;-78
2023/03/07 08:25:37;;;;;;;9.32;5.50;;;5.80;96.90;;;;;;4967561;28;20062;-78
2023/03/07 08:28:04;;;;;;;8.98;5.25;;;5.80;96.80;;;;;;4965954;28;20027;-78
2023/03/07 08:30:32;;;;;;;11.38;6.00;;;5.80;96.70;;;;;;4965717;28;20104;-78
2023/03/07 08:32:58;;;;;;;10.40;5.63;;;5.90;96.60;;;;;;4968445;28;20074;-79
2023/03/07 08:35:25;;;;;;;11.10;6.72;;;5.80;96.40;;;;;;4970746;28;20118;-78
2023/03/07 08:37:56;;;;;;;11.60;5.88;;;5.80;96.30;;;;;;4973090;28;20468;-78
2023/03/07 08:40:23;;;;;;;11.45;5.50;;;5.70;96.20;;;;;;4967370;28;20034;-78
2023/03/07 08:42:49;;;;;;;11.07;6.18;;;5.70;96.30;;;;;;4971363;28;20026;-78
2023/03/07 08:45:15;;;;;;;13.45;5.88;;;5.70;96.30;;;;;;4962436;28;20542;-78
2023/03/07 08:47:41;;;;;;;10.15;5.50;;;5.70;96.20;;;;;;4972050;28;20050;-78
2023/03/07 08:50:07;;;;;;;11.57;6.25;;;5.70;96.30;;;;;;4971433;28;20022;-78
2023/03/07 08:52:33;;;;;;;11.05;5.63;;;5.80;96.40;;;;;;4971941;28;20114;-78
2023/03/07 08:54:58;;;;;;;11.38;5.82;;;5.80;96.50;;;;;;4968736;28;20110;-77
2023/03/07 08:57:24;;;;;;;12.30;5.53;;;5.80;96.00;;;;;;4970234;28;20499;-78
2023/03/07 08:59:50;;;;;;;12.40;6.15;;;5.80;96.20;;;;;;4970742;28;20539;-78
2023/03/07 09:02:16;;;;;;;13.43;5.20;;;5.80;96.20;;;;;;4979822;23;20054;-78
2023/03/07 09:04:41;;;;;;;9.75;4.95;;;5.90;95.90;;;;;;4966734;28;20500;-79
2023/03/07 09:07:07;;;;;;;8.88;5.18;;;5.90;95.90;;;;;;4967888;28;20033;-77
2023/03/07 09:09:33;;;;;;;10.00;5.85;;;5.90;95.90;;;;;;4972065;28;20050;-78
2023/03/07 09:11:58;;;;;;;9.00;5.22;;;5.90;95.70;;;;;;4957759;28;20038;-78
2023/03/07 09:14:24;;;;;;;9.45;5.43;;;5.90;95.30;;;;;;4951991;28;20039;-78
2023/03/07 09:16:49;;;;;;;11.18;5.63;;;5.90;95.30;;;;;;4949094;28;20058;-78
2023/03/07 09:19:15;;;;;;;9.80;4.90;;;5.90;95.20;;;;;;4945788;28;20058;-78
2023/03/07 09:21:41;;;;;;;8.77;4.93;;;5.90;95.50;;;;;;4948086;28;20031;-78
2023/03/07 09:24:07;;;;;;;9.73;5.85;;;5.90;95.40;;;;;;4970054;28;20459;-78
2023/03/07 09:26:33;;;;;;;14.75;5.75;;;6.00;95.30;;;;;;4951020;28;20126;-78
2023/03/07 09:28:59;;;;;;;12.27;5.05;;;5.90;95.20;;;;;;4949303;28;20485;-78
2023/03/07 09:31:24;;;;;;;10.75;5.30;;;5.90;95.00;;;;;;4960084;28;20027;-78
2023/03/07 09:33:51;;;;;;;10.23;5.25;;;5.90;95.30;;;;;;4956156;28;20511;-78
2023/03/07 09:36:18;;;;;;;10.23;5.40;;;6.00;95.30;;;;;;4947930;28;20473;-78
2023/03/07 09:38:44;;;;;;;8.63;4.88;;;6.00;95.00;;;;;;4952003;28;20547;-78
2023/03/07 09:41:41;;;;;;;11.60;5.10;;;5.90;95.00;;;;;;4950631;28;20043;-78
2023/03/07 09:44:14;;;;;;;12.07;5.70;;;6.00;95.10;;;;;;4955252;28;20031;-78
2023/03/07 09:46:52;;;;;;;10.32;5.85;;;6.00;95.10;;;;;;4949845;28;20023;-78
2023/03/07 09:49:22;;;;;;;11.65;5.82;;;5.90;95.20;;;;;;4950267;28;20023;-78
2023/03/07 09:51:50;;;;;;;12.43;5.63;;;6.00;95.50;;;;;;4944894;28;20032;-78
2023/03/07 09:54:18;;;;;;;12.63;5.85;;;6.00;95.20;;;;;;4945624;28;20086;-78
2023/03/07 09:56:56;;;;;;;12.35;5.82;;;6.00;95.50;;;;;;4949076;28;20149;-77
2023/03/07 09:59:47;;;;;;;11.65;6.03;;;6.00;95.50;;;;;;4950306;28;20035;-77
2023/03/07 10:02:19;;;;;;;9.65;5.32;;;5.90;95.40;;;;;;4947593;28;20031;-78
2023/03/07 10:04:57;;;;;;;10.32;5.82;;;6.00;95.40;;;;;;4952444;28;20062;-78
2023/03/07 10:07:25;;;;;;;11.13;5.70;;;5.90;94.90;;;;;;4938658;28;20023;-78
2023/03/07 10:09:58;;;;;;;13.65;5.70;;;6.00;94.90;;;;;;4951600;28;20019;-78
2023/03/07 10:12:47;;;;;;;8.52;5.10;;;6.00;94.80;;;;;;4951898;28;20031;-78
2023/03/07 10:15:27;;;;;;;9.52;4.80;;;6.10;94.50;;;;;;4951630;28;20046;-79
2023/03/07 10:17:53;;;;;;;10.07;5.47;;;6.10;94.40;;;;;;4953185;28;20388;-78
2023/03/07 10:20:34;;;;;;;15.02;5.97;;;6.10;94.30;;;;;;4947292;28;20090;-78
2023/03/07 10:23:23;;;;;;;8.82;4.93;;;6.10;93.70;;;;;;4950634;28;20023;-78
2023/03/07 10:25:55;;;;;;;9.20;5.50;;;6.10;93.70;;;;;;4948361;28;20090;-79
2023/03/07 10:28:27;;;;;;;8.82;4.57;;;6.10;93.30;;;;;;4950321;28;20185;-78
2023/03/07 10:30:59;;;;;;;11.27;5.72;;;6.10;93.00;;;;;;4950386;28;20051;-77
2023/03/07 10:33:28;;;;;;;9.02;5.20;;;6.10;92.60;;;;;;4952242;28;20031;-77
2023/03/07 10:36:06;;;;;;;8.23;4.80;;;6.10;92.70;;;;;;4942795;28;20031;-78
2023/03/07 10:38:44;;;;;;;9.45;5.38;;;6.10;92.60;;;;;;4949171;28;20122;-77
2023/03/07 10:41:17;;;;;;;10.73;5.30;;;6.20;92.50;;;;;;4946702;28;20163;-78
2023/03/07 10:43:44;;;;;;;9.40;4.90;;;6.20;92.20;;;;;;4944704;28;20032;-78
2023/03/07 10:46:16;;;;;;;10.93;5.65;;;6.10;91.70;;;;;;4951602;28;20027;-78
2023/03/07 10:48:47;;;;;;;10.32;4.95;;;6.20;91.50;;;;;;4946263;28;20027;-77
2023/03/07 10:51:51;;;;;;;9.55;4.85;;;6.10;91.30;;;;;;4951484;28;20039;-77
2023/03/07 10:54:20;;;;;;;10.70;5.30;;;6.10;91.10;;;;;;4950339;28;20530;-77
2023/03/07 10:57:13;;;;;;;11.50;5.40;;;6.20;91.10;;;;;;4951213;28;20400;-78
2023/03/07 10:59:43;;;;;;;12.38;6.43;;;6.20;91.00;;;;;;4943922;28;20063;-78
2023/03/07 11:02:34;;;;;;;9.85;5.88;;;6.20;91.20;;;;;;4947410;28;20352;-77
2023/03/07 11:05:02;;;;;;;9.50;4.90;;;6.30;91.10;;;;;;4948729;28;20131;-78
2023/03/07 11:07:33;;;;;;;11.27;5.68;;;6.40;91.00;;;;;;4946414;28;20090;-78
2023/03/07 11:10:01;;;;;;;11.57;5.40;;;6.40;90.50;;;;;;4946763;28;20031;-78
2023/03/07 11:12:28;;;;;;;11.85;6.35;;;6.40;90.10;;;;;;4947845;28;20181;-78
2023/03/07 11:14:56;;;;;;;10.90;5.97;;;6.50;89.90;;;;;;4947300;28;20035;-78
2023/03/07 11:17:30;;;;;;;11.35;5.47;;;6.40;89.60;;;;;;4947227;28;20400;-78
2023/03/07 11:19:57;;;;;;;11.98;5.93;;;6.40;89.40;;;;;;4944699;28;20480;-78
2023/03/07 11:22:34;;;;;;;11.65;6.18;;;6.50;89.80;;;;;;4939439;28;20453;-78
2023/03/07 11:25:12;;;;;;;11.50;6.40;;;6.50;88.90;;;;;;4944465;28;20061;-79
2023/03/07 11:27:49;;;;;;;11.70;5.10;;;6.50;89.00;;;;;;4944442;28;20032;-79
2023/03/07 11:30:26;;;;;;;12.38;5.40;;;6.50;89.30;;;;;;4946819;28;20031;-80
2023/03/07 11:32:52;;;;;;;10.63;5.50;;;6.60;89.00;;;;;;4946806;28;20019;-79
2023/03/07 11:35:41;;;;;;;11.73;5.80;;;6.70;88.60;;;;;;4945131;28;20031;-79
2023/03/07 11:38:20;;;;;;;11.23;5.78;;;6.60;87.50;;;;;;4961759;28;20497;-79
2023/03/07 11:40:52;;;;;;;9.45;5.60;;;6.60;87.20;;;;;;4958653;28;21381;-79
2023/03/07 11:43:40;;;;;;;11.63;6.10;;;6.70;87.80;;;;;;4947115;28;20063;-79
2023/03/07 11:46:24;;;;;;;11.73;5.68;;;6.70;87.40;;;;;;4946268;28;20467;-79
2023/03/07 11:49:14;;;;;;;10.15;5.72;;;6.70;87.30;;;;;;4944875;28;20070;-80
2023/03/07 11:51:48;;;;;;;12.20;6.72;;;6.70;86.90;;;;;;4944501;28;20067;-79
2023/03/07 11:54:19;;;;;;;;;;;6.80;87.40;;;;;;4945758;28;20031;-79
2023/03/07 11:56:50;;;;;;;12.48;5.80;;;6.80;87.30;;;;;;4945924;28;19911;-79
2023/03/07 11:59:56;;;;;;;12.77;6.18;;;6.80;86.90;;;;;;4946208;28;20034;-80
2023/03/07 12:02:38;;;;;;;12.63;6.65;;;6.80;86.50;;;;;;4950054;28;20061;-80
2023/03/07 12:05:29;;;;;;;11.85;5.97;;;6.80;86.10;;;;;;4949144;28;20146;-79
2023/03/07 12:08:01;;;;;;;16.45;6.90;;;6.90;86.60;;;;;;4945790;28;20118;-79
2023/03/07 12:10:45;;;;;;;12.75;6.20;;;6.90;86.50;;;;;;4959430;28;20066;-79
2023/03/07 12:13:40;;;;;;;15.77;6.20;;;7.00;86.30;;;;;;4945763;28;20023;-79
2023/03/07 12:16:18;;;;;;;15.30;7.13;;;7.10;86.70;;;;;;4933243;28;20032;-79
2023/03/07 12:19:11;;;;;;;12.07;6.50;;;7.10;86.70;;;;;;4945190;28;20031;-80
2023/03/07 12:22:00;;;;;;;10.00;5.47;;;7.10;86.20;;;;;;4946853;28;20103;-81
2023/03/07 12:24:38;;;;;;;11.27;5.97;;;7.10;86.00;;;;;;4944672;28;20528;-79
2023/03/07 12:27:17;;;;;;;13.90;6.22;;;7.10;85.40;;;;;;4943626;28;20492;-80
2023/03/07 12:29:56;;;;;;;11.15;5.93;;;7.00;85.10;;;;;;4947758;28;20555;-80
2023/03/07 12:32:24;;;;;;;13.25;6.38;;;6.90;85.90;;;;;;4945269;28;20028;-81
2023/03/07 12:35:00;;;;;;;10.38;6.30;;;6.80;85.60;;;;;;4947058;28;20027;-80
2023/03/07 12:37:50;;;;;;;12.85;6.22;;;6.80;85.80;;;;;;4945933;28;20524;-80
2023/03/07 12:40:19;;;;;;;15.32;6.97;;;6.80;86.20;;;;;;4939414;28;20474;-80
2023/03/07 12:43:09;;;;;;;12.63;6.55;;;6.90;86.40;;;;;;4946794;28;20039;-80
2023/03/07 12:45:49;;;;;;;15.10;6.55;;;7.00;86.80;;;;;;4950128;28;20102;-80
2023/03/07 12:48:39;;;;;;;13.02;6.47;;;7.00;84.20;;;;;;4944497;28;20494;-80
2023/03/07 12:51:35;;;;;;;11.80;6.03;;;7.00;84.50;;;;;;4951048;28;20102;-79
2023/03/07 12:54:22;;;;;;;14.48;6.75;;;7.00;83.70;;;;;;4946394;28;20038;-80
2023/03/07 12:57:05;;;;;;;13.32;6.88;;;7.00;83.30;;;;;;4950015;28;20493;-80
2023/03/07 12:59:34;;;;;;;10.40;5.88;;;7.00;83.80;;;;;;4960033;28;20031;-79